KVCT - Victoria Rgnl, TX, US

Issued at 1720 UTC 18 Oct 2019
Updated at 2315 UTC 18 Oct 2019
Potential Impact None Slight Moderate High
Time2251Z 19/00Z 19/01Z 19/02Z 19/03Z 19/04Z 19/05Z 19/06Z 19/07Z 19/08Z 19/09Z 19/10Z 19/11Z 19/12Z>>
Type OBS PRVL PRVL PRVL PRVL PRVL PRVL PRVL PRVL PRVL
  [TEMP]  
PRVL
  [TEMP]  
PRVL
  [TEMP]  
PRVL
  [TEMP]  
PRVL
VIS 10 >6 >6 >6 >6 >6 >6 >6 >6 >6
  [2]  
>6
  [2]  
>6
  [2]  
>6
  [2]  
>6
CIG -- -- -- -- -- -- -- -- -- --
  [15]  
--
  [15]  
--
  [15]  
--
  [15]  
--
Cover SCT SCT SCT SCT SCT SCT SCT SCT SCT SCT
  [BKN]  
SCT
  [BKN]  
SCT
  [BKN]  
SCT
  [BKN]  
SCT
FltCat VFR VFR VFR VFR VFR VFR VFR VFR VFR VFR
  [IFR]  
VFR
  [IFR]  
VFR
  [IFR]  
VFR
  [IFR]  
VFR
WX -- -- -- -- -- -- -- -- -- --
  [BR]  
--
  [BR]  
--
  [BR]  
--
  [BR]  
--
WDir 160 150 150 150 150 150 150 150 150 150
[150]
150
[150]
150
[150]
150
[150]
150
WSpd 7 7 7 7 7 7 7 7 7 7
  [7]  
7
  [7]  
7
  [7]  
7
  [7]  
7
WGst -- -- -- -- -- -- -- -- -- --
  [--]  
--
  [--]  
--
  [--]  
--
  [--]  
--
Raw TAF
KVCT 181720Z 1818/1918 VRB04KT P6SM SCT035
  FM182300 15007KT P6SM SCT050
  TEMPO 1908/1912 2SM BR BKN015
  FM191600 22008KT P6SM SCT040


Raw METAR
KVCT 182251Z 16007KT 10SM SCT055 27/17 A2973 RMK AO2 SLP065 T02720172
KVCT 182151Z VRB04KT 10SM SCT050 29/17 A2973 RMK AO2 SLP066 T02940167
KVCT 182051Z 17005KT 10SM CLR 29/16 A2974 RMK AO2 SLP070 T02940161 56028

METAR Board
Radar Display
Forecast Discussion
For situational awareness. Not to be used for flight planning purposes.